sensor_id;sensor_type;location;lat;lon;timestamp;pressure;altitude;pressure_sealevel;temperature;humidity
6144;BME280;3103;49.492;8.474;2022-10-16T00:01:32;100276.44;;;16.71;100.00
6144;BME280;3103;49.492;8.474;2022-10-16T00:04:00;100271.09;;;16.61;100.00
6144;BME280;3103;49.492;8.474;2022-10-16T00:06:29;100269.13;;;16.67;100.00
6144;BME280;3103;49.492;8.474;2022-10-16T00:08:57;100261.78;;;16.72;100.00
6144;BME280;3103;49.492;8.474;2022-10-16T00:11:26;100258.25;;;16.72;100.00
6144;BME280;3103;49.492;8.474;2022-10-16T00:14:00;100259.59;;;16.74;100.00
6144;BME280;3103;49.492;8.474;2022-10-16T00:16:28;100248.38;;;16.86;100.00
6144;BME280;3103;49.492;8.474;2022-10-16T00:18:55;100239.91;;;16.92;100.00
6144;BME280;3103;49.492;8.474;2022-10-16T00:21:24;100244.81;;;16.90;100.00
6144;BME280;3103;49.492;8.474;2022-10-16T00:24:10;100265.56;;;16.76;100.00
6144;BME280;3103;49.492;8.474;2022-10-16T00:26:38;100275.13;;;16.69;100.00
6144;BME280;3103;49.492;8.474;2022-10-16T00:29:05;100274.03;;;16.65;100.00
6144;BME280;3103;49.492;8.474;2022-10-16T00:31:32;100265.06;;;16.69;100.00
6144;BME280;3103;49.492;8.474;2022-10-16T00:33:59;100277.53;;;16.70;100.00
6144;BME280;3103;49.492;8.474;2022-10-16T00:36:27;100277.84;;;16.63;100.00
6144;BME280;3103;49.492;8.474;2022-10-16T00:38:56;100271.63;;;16.63;100.00
6144;BME280;3103;49.492;8.474;2022-10-16T00:41:24;100281.66;;;16.62;100.00
6144;BME280;3103;49.492;8.474;2022-10-16T00:43:55;100282.69;;;16.67;100.00
6144;BME280;3103;49.492;8.474;2022-10-16T00:49:01;100291.25;;;16.84;100.00
6144;BME280;3103;49.492;8.474;2022-10-16T00:51:38;100288.41;;;16.99;100.00
6144;BME280;3103;49.492;8.474;2022-10-16T00:54:19;100295.50;;;16.95;100.00
6144;BME280;3103;49.492;8.474;2022-10-16T00:56:48;100283.19;;;16.74;100.00
6144;BME280;3103;49.492;8.474;2022-10-16T00:59:22;100281.84;;;16.76;100.00
6144;BME280;3103;49.492;8.474;2022-10-16T01:01:51;100275.78;;;16.89;100.00
6144;BME280;3103;49.492;8.474;2022-10-16T01:04:20;100284.28;;;16.78;100.00
6144;BME280;3103;49.492;8.474;2022-10-16T01:12:26;100290.47;;;16.83;100.00
6144;BME280;3103;49.492;8.474;2022-10-16T01:15:02;100281.88;;;16.71;100.00
6144;BME280;3103;49.492;8.474;2022-10-16T01:17:35;100295.88;;;17.17;100.00
6144;BME280;3103;49.492;8.474;2022-10-16T01:23:10;100307.78;;;17.16;100.00
6144;BME280;3103;49.492;8.474;2022-10-16T01:25:59;100292.22;;;16.98;100.00
6144;BME280;3103;49.492;8.474;2022-10-16T01:28:38;100296.56;;;16.99;100.00
6144;BME280;3103;49.492;8.474;2022-10-16T01:31:06;100299.97;;;16.81;100.00
6144;BME280;3103;49.492;8.474;2022-10-16T01:33:40;100297.91;;;16.68;100.00
6144;BME280;3103;49.492;8.474;2022-10-16T01:36:21;100298.50;;;16.54;100.00
6144;BME280;3103;49.492;8.474;2022-10-16T01:38:52;100309.06;;;16.56;100.00
6144;BME280;3103;49.492;8.474;2022-10-16T01:41:28;100312.66;;;16.51;100.00
6144;BME280;3103;49.492;8.474;2022-10-16T01:44:08;100313.13;;;16.58;100.00
6144;BME280;3103;49.492;8.474;2022-10-16T01:46:38;100319.94;;;16.56;100.00
6144;BME280;3103;49.492;8.474;2022-10-16T01:49:06;100321.78;;;16.60;100.00
6144;BME280;3103;49.492;8.474;2022-10-16T01:51:35;100315.59;;;16.55;100.00
6144;BME280;3103;49.492;8.474;2022-10-16T01:54:04;100310.22;;;16.50;100.00
6144;BME280;3103;49.492;8.474;2022-10-16T01:56:34;100311.56;;;16.52;100.00
6144;BME280;3103;49.492;8.474;2022-10-16T01:59:06;100311.59;;;16.47;100.00
6144;BME280;3103;49.492;8.474;2022-10-16T02:01:38;100310.69;;;16.57;100.00
6144;BME280;3103;49.492;8.474;2022-10-16T02:04:20;100306.16;;;16.47;100.00
6144;BME280;3103;49.492;8.474;2022-10-16T02:06:49;100299.53;;;16.63;100.00
6144;BME280;3103;49.492;8.474;2022-10-16T02:09:16;100303.34;;;16.62;100.00
6144;BME280;3103;49.492;8.474;2022-10-16T02:11:44;100301.19;;;16.59;100.00
6144;BME280;3103;49.492;8.474;2022-10-16T02:14:11;100297.66;;;16.59;100.00
6144;BME280;3103;49.492;8.474;2022-10-16T02:16:41;100290.34;;;16.59;100.00
6144;BME280;3103;49.492;8.474;2022-10-16T02:19:13;100306.28;;;16.71;100.00
6144;BME280;3103;49.492;8.474;2022-10-16T02:21:44;100297.41;;;16.55;100.00
6144;BME280;3103;49.492;8.474;2022-10-16T02:24:20;100303.84;;;16.70;100.00
6144;BME280;3103;49.492;8.474;2022-10-16T02:28:00;100297.84;;;16.78;100.00
6144;BME280;3103;49.492;8.474;2022-10-16T02:30:37;100298.16;;;16.66;100.00
6144;BME280;3103;49.492;8.474;2022-10-16T02:33:12;100300.13;;;16.95;100.00
6144;BME280;3103;49.492;8.474;2022-10-16T02:35:41;100299.63;;;16.92;100.00
6144;BME280;3103;49.492;8.474;2022-10-16T02:38:09;100298.38;;;16.75;100.00
6144;BME280;3103;49.492;8.474;2022-10-16T02:40:41;100295.13;;;16.78;100.00
6144;BME280;3103;49.492;8.474;2022-10-16T02:43:09;100289.97;;;16.76;100.00
6144;BME280;3103;49.492;8.474;2022-10-16T02:45:36;100299.44;;;16.79;100.00
6144;BME280;3103;49.492;8.474;2022-10-16T02:48:04;100297.84;;;16.73;100.00
6144;BME280;3103;49.492;8.474;2022-10-16T02:50:31;100298.44;;;16.70;100.00
6144;BME280;3103;49.492;8.474;2022-10-16T02:52:57;100309.06;;;16.56;100.00
6144;BME280;3103;49.492;8.474;2022-10-16T02:55:24;100306.59;;;16.65;100.00
6144;BME280;3103;49.492;8.474;2022-10-16T02:57:50;100319.84;;;16.71;100.00
6144;BME280;3103;49.492;8.474;2022-10-16T03:00:17;100328.78;;;16.77;100.00
6144;BME280;3103;49.492;8.474;2022-10-16T03:02:45;100327.75;;;16.68;100.00
6144;BME280;3103;49.492;8.474;2022-10-16T03:05:13;100320.13;;;16.70;100.00
6144;BME280;3103;49.492;8.474;2022-10-16T03:07:40;100309.16;;;16.85;100.00
6144;BME280;3103;49.492;8.474;2022-10-16T03:10:07;100302.78;;;17.00;100.00
6144;BME280;3103;49.492;8.474;2022-10-16T03:12:34;100309.53;;;16.73;100.00
6144;BME280;3103;49.492;8.474;2022-10-16T03:15:00;100309.81;;;16.67;100.00
6144;BME280;3103;49.492;8.474;2022-10-16T03:17:29;100319.63;;;16.57;100.00
6144;BME280;3103;49.492;8.474;2022-10-16T03:19:56;100306.13;;;16.52;100.00
6144;BME280;3103;49.492;8.474;2022-10-16T03:22:23;100313.16;;;16.53;100.00
6144;BME280;3103;49.492;8.474;2022-10-16T03:24:49;100309.78;;;16.77;100.00
6144;BME280;3103;49.492;8.474;2022-10-16T03:27:16;100314.13;;;16.78;100.00
6144;BME280;3103;49.492;8.474;2022-10-16T03:29:43;100311.19;;;16.64;100.00
6144;BME280;3103;49.492;8.474;2022-10-16T03:32:10;100318.84;;;16.57;100.00
6144;BME280;3103;49.492;8.474;2022-10-16T03:34:36;100307.22;;;16.51;100.00
6144;BME280;3103;49.492;8.474;2022-10-16T03:37:03;100308.31;;;16.50;100.00
6144;BME280;3103;49.492;8.474;2022-10-16T03:39:30;100309.31;;;16.59;100.00
6144;BME280;3103;49.492;8.474;2022-10-16T03:41:57;100316.66;;;16.59;100.00
6144;BME280;3103;49.492;8.474;2022-10-16T03:44:23;100308.78;;;16.62;100.00
6144;BME280;3103;49.492;8.474;2022-10-16T03:46:50;100320.16;;;16.59;100.00
6144;BME280;3103;49.492;8.474;2022-10-16T03:49:17;100322.88;;;16.65;100.00
6144;BME280;3103;49.492;8.474;2022-10-16T03:51:43;100326.41;;;16.60;100.00
6144;BME280;3103;49.492;8.474;2022-10-16T03:54:10;100326.72;;;16.53;100.00
6144;BME280;3103;49.492;8.474;2022-10-16T03:56:37;100334.63;;;16.50;100.00
6144;BME280;3103;49.492;8.474;2022-10-16T03:59:04;100338.66;;;16.52;100.00
6144;BME280;3103;49.492;8.474;2022-10-16T04:01:31;100335.44;;;16.50;100.00
6144;BME280;3103;49.492;8.474;2022-10-16T04:03:57;100341.91;;;16.54;100.00
6144;BME280;3103;49.492;8.474;2022-10-16T04:06:24;100335.91;;;16.62;100.00
6144;BME280;3103;49.492;8.474;2022-10-16T04:08:51;100340.56;;;16.52;100.00
6144;BME280;3103;49.492;8.474;2022-10-16T04:11:18;100347.03;;;16.56;100.00
6144;BME280;3103;49.492;8.474;2022-10-16T04:13:44;100344.31;;;16.61;100.00
6144;BME280;3103;49.492;8.474;2022-10-16T04:16:11;100345.94;;;16.57;100.00
6144;BME280;3103;49.492;8.474;2022-10-16T04:18:38;100349.47;;;16.57;100.00
6144;BME280;3103;49.492;8.474;2022-10-16T04:21:06;100351.13;;;16.53;100.00
6144;BME280;3103;49.492;8.474;2022-10-16T04:23:33;100358.63;;;16.77;100.00
6144;BME280;3103;49.492;8.474;2022-10-16T04:26:00;100372.22;;;16.67;100.00
6144;BME280;3103;49.492;8.474;2022-10-16T04:28:27;100357.59;;;16.62;100.00
6144;BME280;3103;49.492;8.474;2022-10-16T04:30:54;100360.94;;;16.49;100.00
6144;BME280;3103;49.492;8.474;2022-10-16T04:33:20;100345.94;;;16.57;100.00
6144;BME280;3103;49.492;8.474;2022-10-16T04:35:47;100337.44;;;16.79;100.00
6144;BME280;3103;49.492;8.474;2022-10-16T04:38:14;100355.91;;;16.77;100.00
6144;BME280;3103;49.492;8.474;2022-10-16T04:40:42;100367.75;;;16.86;100.00
6144;BME280;3103;49.492;8.474;2022-10-16T04:43:08;100359.13;;;16.79;100.00
6144;BME280;3103;49.492;8.474;2022-10-16T04:45:35;100349.22;;;16.54;100.00
6144;BME280;3103;49.492;8.474;2022-10-16T04:48:02;100345.19;;;16.51;100.00
6144;BME280;3103;49.492;8.474;2022-10-16T04:50:29;100341.19;;;16.39;100.00
6144;BME280;3103;49.492;8.474;2022-10-16T04:53:06;100337.06;;;16.46;100.00
6144;BME280;3103;49.492;8.474;2022-10-16T04:55:33;100345.63;;;16.69;100.00
6144;BME280;3103;49.492;8.474;2022-10-16T04:58:00;100344.03;;;16.68;100.00
6144;BME280;3103;49.492;8.474;2022-10-16T05:00:27;100340.75;;;16.71;100.00
6144;BME280;3103;49.492;8.474;2022-10-16T05:02:53;100340.22;;;16.69;100.00
6144;BME280;3103;49.492;8.474;2022-10-16T05:05:21;100341.53;;;16.71;100.00
6144;BME280;3103;49.492;8.474;2022-10-16T05:07:49;100349.56;;;16.86;100.00
6144;BME280;3103;49.492;8.474;2022-10-16T05:10:16;100351.13;;;16.53;100.00
6144;BME280;3103;49.492;8.474;2022-10-16T05:12:44;100344.03;;;16.68;100.00
6144;BME280;3103;49.492;8.474;2022-10-16T05:15:10;100343.75;;;16.64;100.00
6144;BME280;3103;49.492;8.474;2022-10-16T05:17:37;100344.38;;;16.51;100.00
6144;BME280;3103;49.492;8.474;2022-10-16T05:20:10;100346.19;;;16.60;100.00
6144;BME280;3103;49.492;8.474;2022-10-16T05:22:37;100333.72;;;16.59;100.00
6144;BME280;3103;49.492;8.474;2022-10-16T05:25:04;100331.28;;;16.68;100.00
6144;BME280;3103;49.492;8.474;2022-10-16T05:27:31;100321.31;;;16.53;100.00
6144;BME280;3103;49.492;8.474;2022-10-16T05:29:57;100321.63;;;16.86;100.00
6144;BME280;3103;49.492;8.474;2022-10-16T05:32:24;100326.47;;;16.89;100.00
6144;BME280;3103;49.492;8.474;2022-10-16T05:34:51;100332.06;;;16.69;100.00
6144;BME280;3103;49.492;8.474;2022-10-16T05:37:18;100321.78;;;16.60;100.00
6144;BME280;3103;49.492;8.474;2022-10-16T05:39:44;100311.84;;;16.51;100.00
6144;BME280;3103;49.492;8.474;2022-10-16T05:42:11;100324.97;;;16.78;100.00
6144;BME280;3103;49.492;8.474;2022-10-16T05:44:38;100345.34;;;16.70;100.00
6144;BME280;3103;49.492;8.474;2022-10-16T05:47:04;100361.94;;;16.63;100.00
6144;BME280;3103;49.492;8.474;2022-10-16T05:49:31;100375.88;;;16.91;100.00
6144;BME280;3103;49.492;8.474;2022-10-16T05:51:58;100375.06;;;16.90;100.00
6144;BME280;3103;49.492;8.474;2022-10-16T05:54:25;100380.22;;;16.87;100.00
6144;BME280;3103;49.492;8.474;2022-10-16T05:56:52;100364.91;;;16.67;100.00
6144;BME280;3103;49.492;8.474;2022-10-16T05:59:19;100361.91;;;16.69;100.00
6144;BME280;3103;49.492;8.474;2022-10-16T06:01:45;100363.78;;;16.73;100.00
6144;BME280;3103;49.492;8.474;2022-10-16T06:04:12;100371.69;;;16.65;100.00
6144;BME280;3103;49.492;8.474;2022-10-16T06:06:41;100384.72;;;16.68;100.00
6144;BME280;3103;49.492;8.474;2022-10-16T06:09:09;100395.78;;;16.76;100.00
6144;BME280;3103;49.492;8.474;2022-10-16T06:11:36;100384.13;;;16.76;100.00
6144;BME280;3103;49.492;8.474;2022-10-16T06:14:03;100387.19;;;16.54;100.00
6144;BME280;3103;49.492;8.474;2022-10-16T06:16:34;100387.97;;;16.65;100.00
6144;BME280;3103;49.492;8.474;2022-10-16T06:19:03;100399.28;;;16.82;100.00
6144;BME280;3103;49.492;8.474;2022-10-16T06:21:32;100404.13;;;16.85;100.00
6144;BME280;3103;49.492;8.474;2022-10-16T06:23:59;100401.22;;;16.71;100.00
6144;BME280;3103;49.492;8.474;2022-10-16T06:26:28;100403.66;;;16.78;100.00
6144;BME280;3103;49.492;8.474;2022-10-16T06:28:55;100400.19;;;16.57;100.00
6144;BME280;3103;49.492;8.474;2022-10-16T06:31:23;100405.13;;;16.50;100.00
6144;BME280;3103;49.492;8.474;2022-10-16T06:33:54;100414.22;;;16.74;100.00
6144;BME280;3103;49.492;8.474;2022-10-16T06:36:21;100408.56;;;16.60;100.00
6144;BME280;3103;49.492;8.474;2022-10-16T06:38:49;100412.13;;;16.61;100.00
6144;BME280;3103;49.492;8.474;2022-10-16T06:41:19;100409.22;;;16.47;100.00
6144;BME280;3103;49.492;8.474;2022-10-16T06:43:47;100406.50;;;16.42;100.00
6144;BME280;3103;49.492;8.474;2022-10-16T06:46:16;100421.13;;;16.46;100.00
6144;BME280;3103;49.492;8.474;2022-10-16T06:48:43;100423.78;;;16.61;100.00
6144;BME280;3103;49.492;8.474;2022-10-16T06:51:15;100426.53;;;16.51;100.00
6144;BME280;3103;49.492;8.474;2022-10-16T06:53:47;100430.06;;;16.47;100.00
6144;BME280;3103;49.492;8.474;2022-10-16T06:56:29;100441.72;;;16.52;100.00
6144;BME280;3103;49.492;8.474;2022-10-16T06:58:58;100446.09;;;16.48;100.00
6144;BME280;3103;49.492;8.474;2022-10-16T07:01:26;100450.44;;;16.49;100.00
6144;BME280;3103;49.492;8.474;2022-10-16T07:03:53;100447.44;;;16.51;100.00
6144;BME280;3103;49.492;8.474;2022-10-16T07:06:22;100454.22;;;16.48;100.00
6144;BME280;3103;49.492;8.474;2022-10-16T07:08:50;100442.28;;;16.49;100.00
6144;BME280;3103;49.492;8.474;2022-10-16T07:11:19;100450.88;;;16.67;100.00
6144;BME280;3103;49.492;8.474;2022-10-16T07:13:48;100459.00;;;16.72;100.00
6144;BME280;3103;49.492;8.474;2022-10-16T07:16:27;100472.56;;;16.77;100.00
6144;BME280;3103;49.492;8.474;2022-10-16T07:18:55;100476.28;;;16.86;100.00
6144;BME280;3103;49.492;8.474;2022-10-16T07:21:32;100474.47;;;16.71;100.00
6144;BME280;3103;49.492;8.474;2022-10-16T07:24:04;100482.28;;;16.83;100.00
6144;BME280;3103;49.492;8.474;2022-10-16T07:26:33;100481.19;;;16.84;100.00
6144;BME280;3103;49.492;8.474;2022-10-16T07:29:01;100487.63;;;16.98;100.00
6144;BME280;3103;49.492;8.474;2022-10-16T07:31:27;100494.63;;;17.09;100.00
6144;BME280;3103;49.492;8.474;2022-10-16T07:33:54;100498.81;;;16.91;100.00
6144;BME280;3103;49.492;8.474;2022-10-16T07:36:21;100507.19;;;16.95;100.00
6144;BME280;3103;49.492;8.474;2022-10-16T07:38:48;100499.13;;;16.80;100.00
6144;BME280;3103;49.492;8.474;2022-10-16T07:41:18;100499.63;;;16.92;100.00
6144;BME280;3103;49.492;8.474;2022-10-16T07:43:46;100493.72;;;16.80;100.00
6144;BME280;3103;49.492;8.474;2022-10-16T07:46:14;100513.47;;;16.85;100.00
6144;BME280;3103;49.492;8.474;2022-10-16T07:48:41;100512.63;;;16.95;100.00
6144;BME280;3103;49.492;8.474;2022-10-16T07:51:12;100509.13;;;16.89;100.00
6144;BME280;3103;49.492;8.474;2022-10-16T07:53:39;100508.59;;;16.82;100.00
6144;BME280;3103;49.492;8.474;2022-10-16T07:56:07;100508.03;;;16.85;100.00
6144;BME280;3103;49.492;8.474;2022-10-16T07:58:34;100520.91;;;17.14;100.00
6144;BME280;3103;49.492;8.474;2022-10-16T08:01:06;100511.78;;;17.00;100.00
6144;BME280;3103;49.492;8.474;2022-10-16T08:03:33;100515.38;;;16.90;100.00
6144;BME280;3103;49.492;8.474;2022-10-16T08:06:01;100519.34;;;17.03;100.00
6144;BME280;3103;49.492;8.474;2022-10-16T08:08:28;100523.06;;;17.17;100.00
6144;BME280;3103;49.492;8.474;2022-10-16T08:10:58;100522.53;;;17.15;100.00
6144;BME280;3103;49.492;8.474;2022-10-16T08:13:25;100525.06;;;17.06;100.00
6144;BME280;3103;49.492;8.474;2022-10-16T08:15:53;100524.81;;;16.98;100.00
6144;BME280;3103;49.492;8.474;2022-10-16T08:18:20;100523.47;;;16.95;100.00
6144;BME280;3103;49.492;8.474;2022-10-16T08:20:47;100526.22;;;16.90;100.00
6144;BME280;3103;49.492;8.474;2022-10-16T08:23:14;100527.75;;;17.06;100.00
6144;BME280;3103;49.492;8.474;2022-10-16T08:25:41;100532.28;;;17.21;100.00
6144;BME280;3103;49.492;8.474;2022-10-16T08:28:09;100540.69;;;17.25;100.00
6144;BME280;3103;49.492;8.474;2022-10-16T08:30:36;100545.91;;;17.11;100.00
6144;BME280;3103;49.492;8.474;2022-10-16T08:33:04;100546.16;;;17.19;100.00
6144;BME280;3103;49.492;8.474;2022-10-16T08:35:31;100541.91;;;17.03;100.00
6144;BME280;3103;49.492;8.474;2022-10-16T08:37:57;100547.38;;;16.93;100.00
6144;BME280;3103;49.492;8.474;2022-10-16T08:40:30;100549.78;;;17.00;100.00
6144;BME280;3103;49.492;8.474;2022-10-16T08:46:34;100615.78;;;17.44;100.00
6144;BME280;3103;49.492;8.474;2022-10-16T08:49:03;100665.84;;;17.23;100.00
6144;BME280;3103;49.492;8.474;2022-10-16T08:51:36;100646.91;;;17.08;100.00
6144;BME280;3103;49.492;8.474;2022-10-16T08:54:31;100646.06;;;17.17;100.00
6144;BME280;3103;49.492;8.474;2022-10-16T08:57:09;100618.44;;;17.00;100.00
6144;BME280;3103;49.492;8.474;2022-10-16T08:59:36;100606.25;;;16.92;100.00
6144;BME280;3103;49.492;8.474;2022-10-16T09:02:19;100596.97;;;17.09;100.00
6144;BME280;3103;49.492;8.474;2022-10-16T09:04:57;100611.91;;;17.01;100.00
6144;BME280;3103;49.492;8.474;2022-10-16T09:16:01;100629.63;;;17.92;100.00
6144;BME280;3103;49.492;8.474;2022-10-16T09:18:45;100620.44;;;17.83;100.00
6144;BME280;3103;49.492;8.474;2022-10-16T09:21:24;100627.97;;;17.96;100.00
6144;BME280;3103;49.492;8.474;2022-10-16T09:23:51;100630.38;;;18.03;100.00
6144;BME280;3103;49.492;8.474;2022-10-16T09:26:18;100626.34;;;17.95;100.00
6144;BME280;3103;49.492;8.474;2022-10-16T09:28:51;100630.78;;;18.15;100.00
6144;BME280;3103;49.492;8.474;2022-10-16T09:31:21;100641.22;;;18.37;100.00
6144;BME280;3103;49.492;8.474;2022-10-16T09:33:53;100628.34;;;18.19;100.00
6144;BME280;3103;49.492;8.474;2022-10-16T09:36:23;100625.84;;;18.22;100.00
6144;BME280;3103;49.492;8.474;2022-10-16T09:39:05;100637.03;;;18.50;100.00
6144;BME280;3103;49.492;8.474;2022-10-16T09:41:34;100637.63;;;18.42;100.00
6144;BME280;3103;49.492;8.474;2022-10-16T09:44:05;100640.84;;;18.49;100.00
6144;BME280;3103;49.492;8.474;2022-10-16T09:46:34;100635.09;;;18.21;100.00
6144;BME280;3103;49.492;8.474;2022-10-16T09:49:25;100629.59;;;18.31;100.00
6144;BME280;3103;49.492;8.474;2022-10-16T09:51:51;100635.16;;;18.16;100.00
6144;BME280;3103;49.492;8.474;2022-10-16T09:54:29;100638.88;;;18.25;100.00
6144;BME280;3103;49.492;8.474;2022-10-16T09:57:05;100640.19;;;18.33;100.00
6144;BME280;3103;49.492;8.474;2022-10-16T09:59:32;100637.00;;;18.21;100.00
6144;BME280;3103;49.492;8.474;2022-10-16T10:02:04;100637.88;;;18.16;100.00
6144;BME280;3103;49.492;8.474;2022-10-16T10:04:43;100644.03;;;18.27;100.00
6144;BME280;3103;49.492;8.474;2022-10-16T10:07:22;100646.88;;;18.40;100.00
6144;BME280;3103;49.492;8.474;2022-10-16T10:09:50;100648.28;;;18.38;100.00
6144;BME280;3103;49.492;8.474;2022-10-16T10:12:23;100637.88;;;18.45;99.59
6144;BME280;3103;49.492;8.474;2022-10-16T10:14:55;100635.34;;;18.54;100.00
6144;BME280;3103;49.492;8.474;2022-10-16T10:17:28;100644.91;;;18.80;98.05
6144;BME280;3103;49.492;8.474;2022-10-16T10:20:18;100648.13;;;18.82;96.44
6144;BME280;3103;49.492;8.474;2022-10-16T10:22:47;100657.19;;;19.02;93.93
6144;BME280;3103;49.492;8.474;2022-10-16T10:33:52;100647.31;;;18.82;93.45
6144;BME280;3103;49.492;8.474;2022-10-16T10:36:38;100649.09;;;18.67;94.25
6144;BME280;3103;49.492;8.474;2022-10-16T10:39:24;100640.75;;;18.59;95.36
6144;BME280;3103;49.492;8.474;2022-10-16T10:42:14;100642.88;;;18.62;96.16
6144;BME280;3103;49.492;8.474;2022-10-16T10:45:17;100632.56;;;18.64;95.73
6144;BME280;3103;49.492;8.474;2022-10-16T10:48:12;100634.09;;;18.70;97.14
6144;BME280;3103;49.492;8.474;2022-10-16T10:51:00;100631.69;;;19.16;94.89
6144;BME280;3103;49.492;8.474;2022-10-16T10:53:38;100629.19;;;19.63;90.30
6144;BME280;3103;49.492;8.474;2022-10-16T11:05:09;100636.78;;;20.17;84.36
6144;BME280;3103;49.492;8.474;2022-10-16T11:07:50;100645.00;;;20.31;83.21
6144;BME280;3103;49.492;8.474;2022-10-16T11:10:22;100634.94;;;20.12;84.12
6144;BME280;3103;49.492;8.474;2022-10-16T11:13:19;100636.44;;;20.05;85.19
6144;BME280;3103;49.492;8.474;2022-10-16T11:15:50;100635.97;;;19.98;84.56
6144;BME280;3103;49.492;8.474;2022-10-16T11:21:14;100643.84;;;20.18;83.39
6144;BME280;3103;49.492;8.474;2022-10-16T11:23:57;100644.06;;;20.22;82.26
6144;BME280;3103;49.492;8.474;2022-10-16T11:26:29;100647.19;;;20.15;83.14
6144;BME280;3103;49.492;8.474;2022-10-16T11:29:01;100646.91;;;19.98;84.74
6144;BME280;3103;49.492;8.474;2022-10-16T11:31:47;100649.00;;;19.87;85.51
6144;BME280;3103;49.492;8.474;2022-10-16T11:36:57;100635.88;;;19.89;85.77
6144;BME280;3103;49.492;8.474;2022-10-16T11:39:29;100635.28;;;20.25;83.33
6144;BME280;3103;49.492;8.474;2022-10-16T11:42:04;100633.53;;;20.48;80.54
6144;BME280;3103;49.492;8.474;2022-10-16T11:45:11;100638.44;;;19.99;83.17
6144;BME280;3103;49.492;8.474;2022-10-16T11:47:48;100637.34;;;19.63;85.57
6144;BME280;3103;49.492;8.474;2022-10-16T11:50:33;100642.56;;;19.78;85.32
6144;BME280;3103;49.492;8.474;2022-10-16T11:53:21;100637.47;;;19.90;83.92
6144;BME280;3103;49.492;8.474;2022-10-16T11:55:50;100638.34;;;20.04;83.75
6144;BME280;3103;49.492;8.474;2022-10-16T12:03:52;100627.09;;;19.92;85.36
6144;BME280;3103;49.492;8.474;2022-10-16T12:06:30;100635.63;;;20.04;84.75
6144;BME280;3103;49.492;8.474;2022-10-16T12:09:00;100630.25;;;19.99;84.69
6144;BME280;3103;49.492;8.474;2022-10-16T12:14:05;100636.16;;;19.88;85.30
6144;BME280;3103;49.492;8.474;2022-10-16T12:16:32;100634.53;;;19.86;86.39
6144;BME280;3103;49.492;8.474;2022-10-16T12:19:19;100619.34;;;19.80;87.51
6144;BME280;3103;49.492;8.474;2022-10-16T12:21:46;100627.19;;;19.87;87.44
6144;BME280;3103;49.492;8.474;2022-10-16T12:26:55;100619.72;;;19.93;87.41
6144;BME280;3103;49.492;8.474;2022-10-16T12:29:43;100618.41;;;19.90;87.56
6144;BME280;3103;49.492;8.474;2022-10-16T12:32:38;100619.22;;;19.91;87.79
6144;BME280;3103;49.492;8.474;2022-10-16T12:35:20;100617.88;;;19.88;87.62
6144;BME280;3103;49.492;8.474;2022-10-16T12:37:47;100626.66;;;19.85;87.44
6144;BME280;3103;49.492;8.474;2022-10-16T12:40:27;100628.78;;;19.88;87.05
6144;BME280;3103;49.492;8.474;2022-10-16T12:42:56;100621.03;;;19.95;86.87
6144;BME280;3103;49.492;8.474;2022-10-16T12:45:31;100618.59;;;19.94;87.11
6144;BME280;3103;49.492;8.474;2022-10-16T12:48:00;100619.25;;;20.04;86.78
6144;BME280;3103;49.492;8.474;2022-10-16T12:50:33;100612.69;;;20.05;86.69
6144;BME280;3103;49.492;8.474;2022-10-16T12:53:03;100617.38;;;20.19;86.16
6144;BME280;3103;49.492;8.474;2022-10-16T13:01:29;100620.53;;;20.26;85.76
6144;BME280;3103;49.492;8.474;2022-10-16T13:04:13;100617.59;;;20.22;85.71
6144;BME280;3103;49.492;8.474;2022-10-16T13:07:00;100626.78;;;20.26;85.45
6144;BME280;3103;49.492;8.474;2022-10-16T13:09:49;100625.13;;;20.11;85.54
6144;BME280;3103;49.492;8.474;2022-10-16T13:18:50;100625.47;;;19.91;85.40
6144;BME280;3103;49.492;8.474;2022-10-16T13:21:57;100644.78;;;19.76;85.70
6144;BME280;3103;49.492;8.474;2022-10-16T13:30:26;100642.72;;;19.68;85.69
6144;BME280;3103;49.492;8.474;2022-10-16T13:33:13;100634.78;;;19.71;85.31
6144;BME280;3103;49.492;8.474;2022-10-16T13:35:53;100634.09;;;19.79;84.77
6144;BME280;3103;49.492;8.474;2022-10-16T13:38:22;100625.03;;;19.84;83.67
6144;BME280;3103;49.492;8.474;2022-10-16T13:43:21;100635.31;;;20.06;82.05
6144;BME280;3103;49.492;8.474;2022-10-16T13:45:59;100637.91;;;19.97;82.78
6144;BME280;3103;49.492;8.474;2022-10-16T13:48:26;100634.00;;;20.03;82.83
6144;BME280;3103;49.492;8.474;2022-10-16T13:51:01;100617.69;;;19.98;82.74
6144;BME280;3103;49.492;8.474;2022-10-16T13:53:30;100627.94;;;20.06;82.68
6144;BME280;3103;49.492;8.474;2022-10-16T13:55:57;100629.56;;;20.07;81.86
6144;BME280;3103;49.492;8.474;2022-10-16T13:58:26;100630.53;;;19.98;82.33
6144;BME280;3103;49.492;8.474;2022-10-16T14:00:55;100636.78;;;19.98;82.51
6144;BME280;3103;49.492;8.474;2022-10-16T14:03:23;100638.00;;;19.92;82.84
6144;BME280;3103;49.492;8.474;2022-10-16T14:05:56;100634.53;;;19.86;83.04
6144;BME280;3103;49.492;8.474;2022-10-16T14:08:25;100633.75;;;19.86;82.75
6144;BME280;3103;49.492;8.474;2022-10-16T14:10:55;100640.50;;;19.89;82.65
6144;BME280;3103;49.492;8.474;2022-10-16T14:13:37;100644.03;;;19.89;82.50
6144;BME280;3103;49.492;8.474;2022-10-16T14:16:10;100631.66;;;19.78;82.92
6144;BME280;3103;49.492;8.474;2022-10-16T14:18:38;100631.97;;;19.76;84.18
6144;BME280;3103;49.492;8.474;2022-10-16T14:21:07;100637.34;;;19.81;84.45
6144;BME280;3103;49.492;8.474;2022-10-16T14:23:40;100632.63;;;19.87;83.46
6144;BME280;3103;49.492;8.474;2022-10-16T14:26:13;100640.97;;;19.77;83.56
6144;BME280;3103;49.492;8.474;2022-10-16T14:28:41;100637.72;;;19.75;83.67
6144;BME280;3103;49.492;8.474;2022-10-16T14:31:29;100628.78;;;19.69;83.85
6144;BME280;3103;49.492;8.474;2022-10-16T14:33:56;100634.41;;;19.78;83.28
6144;BME280;3103;49.492;8.474;2022-10-16T14:36:23;100630.94;;;19.91;81.65
6144;BME280;3103;49.492;8.474;2022-10-16T14:41:25;100637.25;;;19.68;82.61
6144;BME280;3103;49.492;8.474;2022-10-16T14:43:57;100631.47;;;19.74;83.02
6144;BME280;3103;49.492;8.474;2022-10-16T14:46:35;100633.25;;;19.98;81.20